sensor_id;sensor_type;location;lat;lon;timestamp;pressure;altitude;pressure_sealevel;temperature;humidity
33953;BME280;20231;42.710;23.280;2023-03-03T00:01:21;94988.97;;;8.31;65.18
33953;BME280;20231;42.710;23.280;2023-03-03T00:03:49;94973.97;;;8.42;64.84
33953;BME280;20231;42.710;23.280;2023-03-03T00:06:21;94980.03;;;8.37;64.84
33953;BME280;20231;42.710;23.280;2023-03-03T00:10:05;94996.84;;;8.51;64.88
33953;BME280;20231;42.710;23.280;2023-03-03T00:19:53;94986.88;;;8.48;64.87
33953;BME280;20231;42.710;23.280;2023-03-03T00:29:58;94983.19;;;8.49;64.95
33953;BME280;20231;42.710;23.280;2023-03-03T00:42:55;94974.00;;;8.27;65.95
33953;BME280;20231;42.710;23.280;2023-03-03T00:46:04;94971.09;;;8.23;66.11
33953;BME280;20231;42.710;23.280;2023-03-03T00:48:51;94916.38;;;7.76;66.53
33953;BME280;20231;42.710;23.280;2023-03-03T00:51:54;94957.94;;;8.08;66.80
33953;BME280;20231;42.710;23.280;2023-03-03T01:06:00;94936.63;;;7.85;67.93
33953;BME280;20231;42.710;23.280;2023-03-03T01:09:44;94935.31;;;8.02;67.44
33953;BME280;20231;42.710;23.280;2023-03-03T01:17:08;94940.63;;;8.17;66.81
33953;BME280;20231;42.710;23.280;2023-03-03T01:20:47;94933.78;;;8.16;67.03
33953;BME280;20231;42.710;23.280;2023-03-03T01:24:06;94930.59;;;7.84;67.73
33953;BME280;20231;42.710;23.280;2023-03-03T01:30:28;94929.28;;;7.97;67.91
33953;BME280;20231;42.710;23.280;2023-03-03T01:33:19;94921.19;;;8.18;66.77
33953;BME280;20231;42.710;23.280;2023-03-03T01:36:06;94932.75;;;8.17;66.96
33953;BME280;20231;42.710;23.280;2023-03-03T01:39:09;94924.31;;;8.20;66.91
33953;BME280;20231;42.710;23.280;2023-03-03T01:41:48;94931.44;;;8.20;66.88
33953;BME280;20231;42.710;23.280;2023-03-03T01:45:25;94927.19;;;7.99;67.48
33953;BME280;20231;42.710;23.280;2023-03-03T01:51:21;94926.41;;;8.03;67.44
33953;BME280;20231;42.710;23.280;2023-03-03T01:54:38;94926.44;;;8.28;66.47
33953;BME280;20231;42.710;23.280;2023-03-03T02:00:54;94916.91;;;7.82;68.09
33953;BME280;20231;42.710;23.280;2023-03-03T02:03:26;94927.19;;;8.04;67.37
33953;BME280;20231;42.710;23.280;2023-03-03T02:05:55;94867.03;;;7.68;67.55
33953;BME280;20231;42.710;23.280;2023-03-03T02:08:26;94886.47;;;7.86;67.26
33953;BME280;20231;42.710;23.280;2023-03-03T02:10:54;94914.03;;;8.04;67.32
33953;BME280;20231;42.710;23.280;2023-03-03T02:13:23;94892.25;;;7.98;67.23
33953;BME280;20231;42.710;23.280;2023-03-03T02:15:53;94917.75;;;8.23;66.76
33953;BME280;20231;42.710;23.280;2023-03-03T02:18:22;94918.53;;;8.03;67.12
33953;BME280;20231;42.710;23.280;2023-03-03T02:21:07;94920.09;;;8.04;67.36
33953;BME280;20231;42.710;23.280;2023-03-03T02:24:05;94920.59;;;8.06;67.15
33953;BME280;20231;42.710;23.280;2023-03-03T02:26:37;94924.03;;;7.97;67.50
33953;BME280;20231;42.710;23.280;2023-03-03T02:29:06;94919.06;;;8.20;66.87
33953;BME280;20231;42.710;23.280;2023-03-03T02:31:32;94922.75;;;8.14;67.13
33953;BME280;20231;42.710;23.280;2023-03-03T02:34:01;94900.94;;;8.09;66.73
33953;BME280;20231;42.710;23.280;2023-03-03T02:36:32;94870.44;;;7.88;66.72
33953;BME280;20231;42.710;23.280;2023-03-03T02:44:14;94899.88;;;8.00;66.42
33953;BME280;20231;42.710;23.280;2023-03-03T02:46:45;94889.88;;;7.97;66.19
33953;BME280;20231;42.710;23.280;2023-03-03T03:09:41;94908.53;;;7.80;67.19
33953;BME280;20231;42.710;23.280;2023-03-03T03:30:35;94901.97;;;7.98;67.36
33953;BME280;20231;42.710;23.280;2023-03-03T03:33:00;94876.22;;;7.85;67.41
33953;BME280;20231;42.710;23.280;2023-03-03T03:35:27;94841.56;;;7.73;67.03
33953;BME280;20231;42.710;23.280;2023-03-03T03:37:58;94878.56;;;8.01;66.95
33953;BME280;20231;42.710;23.280;2023-03-03T03:40:41;94892.25;;;8.03;67.23
33953;BME280;20231;42.710;23.280;2023-03-03T03:43:08;94841.81;;;7.77;67.34
33953;BME280;20231;42.710;23.280;2023-03-03T03:45:37;94884.13;;;7.90;67.77
33953;BME280;20231;42.710;23.280;2023-03-03T03:48:17;94881.19;;;7.81;68.32
33953;BME280;20231;42.710;23.280;2023-03-03T03:50:49;94880.69;;;7.84;68.49
33953;BME280;20231;42.710;23.280;2023-03-03T03:53:21;94899.31;;;7.73;68.74
33953;BME280;20231;42.710;23.280;2023-03-03T03:55:49;94882.50;;;7.79;68.90
33953;BME280;20231;42.710;23.280;2023-03-03T03:58:45;94882.25;;;7.66;69.38
33953;BME280;20231;42.710;23.280;2023-03-03T04:01:27;94882.25;;;7.76;69.39
33953;BME280;20231;42.710;23.280;2023-03-03T04:04:12;94875.19;;;7.76;69.50
33953;BME280;20231;42.710;23.280;2023-03-03T04:06:42;94860.72;;;7.78;69.03
33953;BME280;20231;42.710;23.280;2023-03-03T04:09:07;94881.75;;;7.78;69.80
33953;BME280;20231;42.710;23.280;2023-03-03T04:11:33;94853.38;;;7.66;69.65
33953;BME280;20231;42.710;23.280;2023-03-03T04:13:58;94851.00;;;7.69;69.71
33953;BME280;20231;42.710;23.280;2023-03-03T04:16:24;94859.41;;;7.86;69.20
33953;BME280;20231;42.710;23.280;2023-03-03T04:19:08;94882.25;;;8.00;69.18
33953;BME280;20231;42.710;23.280;2023-03-03T04:25:06;94881.22;;;8.01;69.05
33953;BME280;20231;42.710;23.280;2023-03-03T04:28:18;94862.03;;;7.81;69.31
33953;BME280;20231;42.710;23.280;2023-03-03T04:31:06;94875.97;;;7.86;69.65
33953;BME280;20231;42.710;23.280;2023-03-03T04:33:36;94877.28;;;7.84;69.45
33953;BME280;20231;42.710;23.280;2023-03-03T04:36:06;94870.19;;;7.84;69.56
33953;BME280;20231;42.710;23.280;2023-03-03T04:39:22;94875.16;;;7.91;69.48
33953;BME280;20231;42.710;23.280;2023-03-03T04:42:33;94866.50;;;7.95;69.11
33953;BME280;20231;42.710;23.280;2023-03-03T04:45:59;94879.63;;;7.76;69.85
33953;BME280;20231;42.710;23.280;2023-03-03T04:48:46;94847.84;;;7.67;69.80
33953;BME280;20231;42.710;23.280;2023-03-03T05:01:26;94865.19;;;7.63;70.21
33953;BME280;20231;42.710;23.280;2023-03-03T05:03:54;94861.75;;;7.43;71.25
33953;BME280;20231;42.710;23.280;2023-03-03T05:06:21;94854.66;;;7.48;70.87
33953;BME280;20231;42.710;23.280;2023-03-03T05:08:49;94843.63;;;7.31;71.17
33953;BME280;20231;42.710;23.280;2023-03-03T05:11:45;94885.41;;;7.78;70.60
33953;BME280;20231;42.710;23.280;2023-03-03T05:17:58;94881.72;;;7.59;71.26
33953;BME280;20231;42.710;23.280;2023-03-03T05:20:42;94899.84;;;7.75;71.31
33953;BME280;20231;42.710;23.280;2023-03-03T05:24:15;94894.59;;;7.65;71.98
33953;BME280;20231;42.710;23.280;2023-03-03T05:26:54;94868.06;;;7.81;70.63
33953;BME280;20231;42.710;23.280;2023-03-03T05:29:25;94839.44;;;7.50;71.04
33953;BME280;20231;42.710;23.280;2023-03-03T05:31:56;94850.50;;;7.52;71.14
33953;BME280;20231;42.710;23.280;2023-03-03T05:34:29;94874.66;;;7.74;70.81
33953;BME280;20231;42.710;23.280;2023-03-03T05:36:56;94888.84;;;7.83;70.91
33953;BME280;20231;42.710;23.280;2023-03-03T05:44:58;94867.03;;;7.68;71.14
33953;BME280;20231;42.710;23.280;2023-03-03T05:47:58;94904.31;;;7.84;71.30
33953;BME280;20231;42.710;23.280;2023-03-03T05:54:08;94829.47;;;7.37;71.16
33953;BME280;20231;42.710;23.280;2023-03-03T05:57:09;94899.59;;;8.06;70.91
33953;BME280;20231;42.710;23.280;2023-03-03T05:59:40;94868.59;;;7.64;71.64
33953;BME280;20231;42.710;23.280;2023-03-03T06:02:06;94856.53;;;7.73;70.64
33953;BME280;20231;42.710;23.280;2023-03-03T06:04:32;94873.88;;;7.78;71.19
33953;BME280;20231;42.710;23.280;2023-03-03T06:06:57;94895.13;;;7.87;71.50
33953;BME280;20231;42.710;23.280;2023-03-03T06:09:28;94886.22;;;7.78;71.56
33953;BME280;20231;42.710;23.280;2023-03-03T06:12:01;94887.25;;;7.92;70.85
33953;BME280;20231;42.710;23.280;2023-03-03T06:15:28;94886.22;;;7.88;70.83
33953;BME280;20231;42.710;23.280;2023-03-03T06:18:08;94899.91;;;8.20;71.71
33953;BME280;20231;42.710;23.280;2023-03-03T06:20:36;94896.19;;;8.11;70.48
33953;BME280;20231;42.710;23.280;2023-03-03T06:23:04;94914.84;;;8.19;70.14
33953;BME280;20231;42.710;23.280;2023-03-03T06:25:35;94876.75;;;7.77;70.99
33953;BME280;20231;42.710;23.280;2023-03-03T06:28:06;94919.03;;;7.90;71.31
33953;BME280;20231;42.710;23.280;2023-03-03T06:30:44;94912.22;;;8.14;70.58
33953;BME280;20231;42.710;23.280;2023-03-03T06:33:56;94906.44;;;7.97;70.96
33953;BME280;20231;42.710;23.280;2023-03-03T06:36:34;94915.63;;;8.00;71.25
33953;BME280;20231;42.710;23.280;2023-03-03T06:38:59;94893.16;;;9.40;95.34
33953;BME280;20231;42.710;23.280;2023-03-03T06:41:47;94916.09;;;9.39;76.84
33953;BME280;20231;42.710;23.280;2023-03-03T06:44:12;94912.44;;;9.35;70.82
33953;BME280;20231;42.710;23.280;2023-03-03T06:46:38;94902.84;;;9.01;68.74
33953;BME280;20231;42.710;23.280;2023-03-03T06:49:03;94913.44;;;8.81;69.63
33953;BME280;20231;42.710;23.280;2023-03-03T06:51:37;94881.72;;;8.38;69.84
33953;BME280;20231;42.710;23.280;2023-03-03T06:54:13;94907.25;;;8.33;70.71
33953;BME280;20231;42.710;23.280;2023-03-03T06:56:40;94925.06;;;8.60;70.26
33953;BME280;20231;42.710;23.280;2023-03-03T06:59:18;94908.00;;;8.48;70.41
33953;BME280;20231;42.710;23.280;2023-03-03T07:01:45;94924.03;;;8.52;71.11
33953;BME280;20231;42.710;23.280;2023-03-03T07:04:31;94923.50;;;8.64;70.63
33953;BME280;20231;42.710;23.280;2023-03-03T07:07:06;94921.88;;;8.83;70.04
33953;BME280;20231;42.710;23.280;2023-03-03T07:09:32;94897.75;;;8.42;70.86
33953;BME280;20231;42.710;23.280;2023-03-03T07:12:05;94914.59;;;8.46;71.30
33953;BME280;20231;42.710;23.280;2023-03-03T07:14:36;94916.16;;;8.42;71.41
33953;BME280;20231;42.710;23.280;2023-03-03T07:17:15;94906.72;;;8.21;72.17
33953;BME280;20231;42.710;23.280;2023-03-03T07:19:42;94915.91;;;8.23;72.01
33953;BME280;20231;42.710;23.280;2023-03-03T07:22:23;94926.69;;;8.17;72.35
33953;BME280;20231;42.710;23.280;2023-03-03T07:24:52;94931.44;;;8.20;72.75
33953;BME280;20231;42.710;23.280;2023-03-03T07:29:45;94924.31;;;8.40;71.41
33953;BME280;20231;42.710;23.280;2023-03-03T07:34:48;94921.69;;;8.40;70.80
33953;BME280;20231;42.710;23.280;2023-03-03T07:37:26;94908.00;;;8.38;70.70
33953;BME280;20231;42.710;23.280;2023-03-03T07:39:53;94901.69;;;8.39;70.74
33953;BME280;20231;42.710;23.280;2023-03-03T07:42:45;94920.38;;;8.38;71.19
33953;BME280;20231;42.710;23.280;2023-03-03T07:45:31;94917.44;;;8.44;71.13
33953;BME280;20231;42.710;23.280;2023-03-03T07:48:15;94914.66;;;9.09;87.36
33953;BME280;20231;42.710;23.280;2023-03-03T07:50:41;94906.81;;;8.99;72.19
33953;BME280;20231;42.710;23.280;2023-03-03T07:53:26;94919.22;;;8.88;70.45
33953;BME280;20231;42.710;23.280;2023-03-03T07:55:53;94915.06;;;8.62;71.25
33953;BME280;20231;42.710;23.280;2023-03-03T07:58:33;94918.22;;;8.64;71.09
33953;BME280;20231;42.710;23.280;2023-03-03T08:01:30;94915.88;;;8.48;71.81
33953;BME280;20231;42.710;23.280;2023-03-03T08:03:59;94907.72;;;8.54;71.51
33953;BME280;20231;42.710;23.280;2023-03-03T08:06:48;94910.84;;;8.66;70.62
33953;BME280;20231;42.710;23.280;2023-03-03T08:11:51;94911.38;;;8.53;71.40
33953;BME280;20231;42.710;23.280;2023-03-03T08:14:25;94911.59;;;8.77;71.24
33953;BME280;20231;42.710;23.280;2023-03-03T08:16:51;94900.81;;;8.73;70.99
33953;BME280;20231;42.710;23.280;2023-03-03T08:19:17;94909.25;;;8.65;71.33
33953;BME280;20231;42.710;23.280;2023-03-03T08:21:42;94898.50;;;8.57;71.53
33953;BME280;20231;42.710;23.280;2023-03-03T08:24:08;94897.47;;;8.48;72.13
33953;BME280;20231;42.710;23.280;2023-03-03T08:26:34;94878.28;;;8.48;71.32
33953;BME280;20231;42.710;23.280;2023-03-03T08:28:59;94896.13;;;8.70;71.00
33953;BME280;20231;42.710;23.280;2023-03-03T08:31:25;94885.34;;;8.57;71.09
33953;BME280;20231;42.710;23.280;2023-03-03T08:33:51;94896.88;;;8.76;70.03
33953;BME280;20231;42.710;23.280;2023-03-03T08:36:16;94894.28;;;8.66;70.19
33953;BME280;20231;42.710;23.280;2023-03-03T08:38:42;94885.34;;;8.67;69.64
33953;BME280;20231;42.710;23.280;2023-03-03T08:41:07;94871.69;;;8.50;70.79
33953;BME280;20231;42.710;23.280;2023-03-03T08:43:33;94890.38;;;8.49;71.24
33953;BME280;20231;42.710;23.280;2023-03-03T08:46:00;94888.78;;;8.48;71.13
33953;BME280;20231;42.710;23.280;2023-03-03T08:48:27;94901.09;;;8.72;70.48
33953;BME280;20231;42.710;23.280;2023-03-03T08:50:53;94891.16;;;8.44;71.34
33953;BME280;20231;42.710;23.280;2023-03-03T08:53:19;94896.38;;;8.69;70.84
33953;BME280;20231;42.710;23.280;2023-03-03T08:55:45;94900.53;;;8.85;70.26
33953;BME280;20231;42.710;23.280;2023-03-03T08:58:10;94875.84;;;8.71;70.08
33953;BME280;20231;42.710;23.280;2023-03-03T09:00:36;94902.13;;;8.86;70.08
33953;BME280;20231;42.710;23.280;2023-03-03T09:03:02;94896.63;;;8.67;71.07
33953;BME280;20231;42.710;23.280;2023-03-03T09:05:29;94877.47;;;8.67;70.79
33953;BME280;20231;42.710;23.280;2023-03-03T09:07:55;94897.63;;;8.86;70.49
33953;BME280;20231;42.710;23.280;2023-03-03T09:10:24;94903.41;;;8.93;70.94
33953;BME280;20231;42.710;23.280;2023-03-03T09:12:55;94901.03;;;8.97;71.24
33953;BME280;20231;42.710;23.280;2023-03-03T09:15:31;94888.13;;;8.90;70.68
33953;BME280;20231;42.710;23.280;2023-03-03T09:17:59;94872.97;;;8.77;71.28
33953;BME280;20231;42.710;23.280;2023-03-03T09:20:53;94901.72;;;9.17;71.23
33953;BME280;20231;42.710;23.280;2023-03-03T09:23:27;94894.00;;;9.30;72.39
33953;BME280;20231;42.710;23.280;2023-03-03T09:25:53;94868.03;;;9.19;73.42
33953;BME280;20231;42.710;23.280;2023-03-03T09:28:24;94868.22;;;10.09;87.99
33953;BME280;20231;42.710;23.280;2023-03-03T09:30:51;94880.19;;;9.92;73.66
33953;BME280;20231;42.710;23.280;2023-03-03T09:36:35;94898.00;;;9.71;70.34
33953;BME280;20231;42.710;23.280;2023-03-03T09:39:12;94858.13;;;9.44;70.16
33953;BME280;20231;42.710;23.280;2023-03-03T09:44:21;94903.25;;;9.28;70.75
33953;BME280;20231;42.710;23.280;2023-03-03T09:46:56;94907.19;;;9.30;69.81
33953;BME280;20231;42.710;23.280;2023-03-03T09:50:01;94861.44;;;9.22;70.07
33953;BME280;20231;42.710;23.280;2023-03-03T10:00:30;94895.94;;;9.15;71.12
33953;BME280;20231;42.710;23.280;2023-03-03T10:19:36;94893.63;;;9.52;69.32
33953;BME280;20231;42.710;23.280;2023-03-03T10:33:44;94879.16;;;9.49;68.46
33953;BME280;20231;42.710;23.280;2023-03-03T10:39:25;94873.19;;;9.34;70.03
33953;BME280;20231;42.710;23.280;2023-03-03T10:45:12;94870.75;;;9.47;70.62
33953;BME280;20231;42.710;23.280;2023-03-03T10:53:36;94868.53;;;9.64;69.12
33953;BME280;20231;42.710;23.280;2023-03-03T11:12:53;94849.09;;;9.55;68.46
33953;BME280;20231;42.710;23.280;2023-03-03T11:18:01;94841.28;;;9.45;69.04
33953;BME280;20231;42.710;23.280;2023-03-03T11:20:39;94829.97;;;9.45;69.25
33953;BME280;20231;42.710;23.280;2023-03-03T11:26:17;94822.03;;;9.50;69.33
33953;BME280;20231;42.710;23.280;2023-03-03T11:29:01;94834.56;;;9.24;68.63
33953;BME280;20231;42.710;23.280;2023-03-03T11:31:55;94832.69;;;9.30;68.68
33953;BME280;20231;42.710;23.280;2023-03-03T11:40:11;94834.03;;;9.27;69.10
33953;BME280;20231;42.710;23.280;2023-03-03T11:43:00;94832.66;;;9.35;69.87
33953;BME280;20231;42.710;23.280;2023-03-03T11:45:48;94817.41;;;9.27;68.52
33953;BME280;20231;42.710;23.280;2023-03-03T11:51:19;94829.03;;;9.26;69.20
33953;BME280;20231;42.710;23.280;2023-03-03T11:56:27;94820.66;;;9.19;70.15
33953;BME280;20231;42.710;23.280;2023-03-03T12:04:51;94810.56;;;9.31;70.76
33953;BME280;20231;42.710;23.280;2023-03-03T12:12:22;94806.56;;;9.38;70.65
33953;BME280;20231;42.710;23.280;2023-03-03T12:18:01;94813.44;;;9.34;71.04
33953;BME280;20231;42.710;23.280;2023-03-03T12:26:10;94812.44;;;9.25;72.40
33953;BME280;20231;42.710;23.280;2023-03-03T12:28:50;94813.72;;;9.33;71.64
33953;BME280;20231;42.710;23.280;2023-03-03T12:39:37;94822.41;;;8.85;72.87
33953;BME280;20231;42.710;23.280;2023-03-03T12:47:46;94814.13;;;9.07;73.00
33953;BME280;20231;42.710;23.280;2023-03-03T12:55:45;94820.50;;;8.23;74.87
33953;BME280;20231;42.710;23.280;2023-03-03T12:58:27;94807.88;;;8.30;75.10
33953;BME280;20231;42.710;23.280;2023-03-03T13:09:43;94814.94;;;8.39;74.93
33953;BME280;20231;42.710;23.280;2023-03-03T13:12:22;94807.81;;;8.50;74.78
33953;BME280;20231;42.710;23.280;2023-03-03T13:15:03;94815.41;;;8.56;74.55
33953;BME280;20231;42.710;23.280;2023-03-03T13:17:36;94809.34;;;8.70;74.88
33953;BME280;20231;42.710;23.280;2023-03-03T13:24:15;94808.31;;;8.61;74.73
33953;BME280;20231;42.710;23.280;2023-03-03T13:26:52;94783.22;;;8.06;75.05
33953;BME280;20231;42.710;23.280;2023-03-03T13:29:24;94780.34;;;7.87;77.53
33953;BME280;20231;42.710;23.280;2023-03-03T13:31:55;94784.50;;;8.28;77.03
33953;BME280;20231;42.710;23.280;2023-03-03T13:40:04;94805.63;;;8.76;76.78
33953;BME280;20231;42.710;23.280;2023-03-03T13:47:52;94786.38;;;8.08;77.76
33953;BME280;20231;42.710;23.280;2023-03-03T13:53:33;94794.09;;;8.62;77.10
33953;BME280;20231;42.710;23.280;2023-03-03T14:06:26;94790.94;;;8.60;75.77
33953;BME280;20231;42.710;23.280;2023-03-03T14:17:06;94801.22;;;9.10;74.26
33953;BME280;20231;42.710;23.280;2023-03-03T14:19:39;94797.06;;;8.99;73.55
33953;BME280;20231;42.710;23.280;2023-03-03T14:22:21;94805.94;;;9.13;73.79
33953;BME280;20231;42.710;23.280;2023-03-03T14:27:26;94771.31;;;8.91;74.22
33953;BME280;20231;42.710;23.280;2023-03-03T14:29:52;94795.16;;;9.15;74.17
33953;BME280;20231;42.710;23.280;2023-03-03T14:32:25;94784.81;;;9.23;73.74
33953;BME280;20231;42.710;23.280;2023-03-03T14:34:58;94790.84;;;8.80;74.70
33953;BME280;20231;42.710;23.280;2023-03-03T14:37:42;94793.56;;;8.70;75.34
33953;BME280;20231;42.710;23.280;2023-03-03T14:42:37;94789.78;;;8.86;74.91
33953;BME280;20231;42.710;23.280;2023-03-03T14:47:53;94777.44;;;8.19;76.98
33953;BME280;20231;42.710;23.280;2023-03-03T14:50:37;94791.31;;;8.34;76.40
33953;BME280;20231;42.710;23.280;2023-03-03T14:53:21;94780.75;;;8.49;76.20
33953;BME280;20231;42.710;23.280;2023-03-03T14:55:52;94784.84;;;8.70;75.51
33953;BME280;20231;42.710;23.280;2023-03-03T14:58:39;94769.34;;;8.68;74.95
33953;BME280;20231;42.710;23.280;2023-03-03T15:01:31;94776.28;;;8.50;75.29
33953;BME280;20231;42.710;23.280;2023-03-03T15:11:51;94772.50;;;8.70;74.53
33953;BME280;20231;42.710;23.280;2023-03-03T15:14:19;94763.72;;;8.37;76.16
33953;BME280;20231;42.710;23.280;2023-03-03T15:16:45;94764.91;;;8.64;75.46
33953;BME280;20231;42.710;23.280;2023-03-03T15:22:51;94784.06;;;8.74;74.43
33953;BME280;20231;42.710;23.280;2023-03-03T15:25:32;94780.56;;;8.89;75.09
33953;BME280;20231;42.710;23.280;2023-03-03T15:28:24;94781.31;;;8.94;74.49
33953;BME280;20231;42.710;23.280;2023-03-03T15:31:14;94782.16;;;9.28;76.96
33953;BME280;20231;42.710;23.280;2023-03-03T16:00:28;94796.13;;;9.62;72.33
33953;BME280;20231;42.710;23.280;2023-03-03T16:03:16;94805.03;;;9.66;72.12
33953;BME280;20231;42.710;23.280;2023-03-03T16:08:16;94796.41;;;9.60;71.22
33953;BME280;20231;42.710;23.280;2023-03-03T16:10:54;94819.06;;;9.56;71.67
33953;BME280;20231;42.710;23.280;2023-03-03T16:13:58;94811.16;;;9.56;72.15
33953;BME280;20231;42.710;23.280;2023-03-03T16:25:13;94819.69;;;9.48;72.46
33953;BME280;20231;42.710;23.280;2023-03-03T16:28:00;94812.28;;;9.50;72.02
33953;BME280;20231;42.710;23.280;2023-03-03T16:39:05;94831.41;;;9.61;72.67
33953;BME280;20231;42.710;23.280;2023-03-03T16:44:46;94840.63;;;9.25;74.13
33953;BME280;20231;42.710;23.280;2023-03-03T16:50:18;94835.25;;;9.40;73.55
33953;BME280;20231;42.710;23.280;2023-03-03T16:52:53;94837.44;;;9.28;73.60
33953;BME280;20231;42.710;23.280;2023-03-03T16:55:34;94851.84;;;9.40;73.22
33953;BME280;20231;42.710;23.280;2023-03-03T16:58:25;94850.03;;;9.36;73.15
33953;BME280;20231;42.710;23.280;2023-03-03T17:00:59;94857.91;;;9.36;72.98
33953;BME280;20231;42.710;23.280;2023-03-03T17:03:59;94856.59;;;9.38;72.64
33953;BME280;20231;42.710;23.280;2023-03-03T17:17:14;94861.28;;;9.46;71.21
33953;BME280;20231;42.710;23.280;2023-03-03T17:25:36;94867.94;;;9.34;71.45
33953;BME280;20231;42.710;23.280;2023-03-03T17:31:11;94866.84;;;9.40;71.66
33953;BME280;20231;42.710;23.280;2023-03-03T17:33:58;94872.22;;;9.63;71.55
33953;BME280;20231;42.710;23.280;2023-03-03T17:42:13;94879.16;;;9.54;70.68
33953;BME280;20231;42.710;23.280;2023-03-03T17:44:52;94893.63;;;9.52;71.00
33953;BME280;20231;42.710;23.280;2023-03-03T18:20:55;94917.25;;;9.67;70.33
33953;BME280;20231;42.710;23.280;2023-03-03T18:23:38;94920.94;;;9.66;70.43
33953;BME280;20231;42.710;23.280;2023-03-03T18:26:33;94923.84;;;9.64;70.28
33953;BME280;20231;42.710;23.280;2023-03-03T18:31:44;94932.53;;;9.70;70.25
33953;BME280;20231;42.710;23.280;2023-03-03T18:36:59;94917.31;;;9.57;70.31
33953;BME280;20231;42.710;23.280;2023-03-03T18:42:36;94937.09;;;9.49;71.06
33953;BME280;20231;42.710;23.280;2023-03-03T18:48:14;94938.72;;;9.45;71.10
33953;BME280;20231;42.710;23.280;2023-03-03T18:50:43;94942.44;;;9.34;71.19
33953;BME280;20231;42.710;23.280;2023-03-03T18:53:11;94947.16;;;9.37;71.38
33953;BME280;20231;42.710;23.280;2023-03-03T18:55:54;94953.78;;;9.30;71.33
33953;BME280;20231;42.710;23.280;2023-03-03T19:08:55;94959.97;;;9.64;71.60
33953;BME280;20231;42.710;23.280;2023-03-03T19:11:35;94969.16;;;9.66;71.37
33953;BME280;20231;42.710;23.280;2023-03-03T19:14:34;94954.25;;;9.42;70.91
33953;BME280;20231;42.710;23.280;2023-03-03T19:22:45;94974.91;;;9.20;71.48
33953;BME280;20231;42.710;23.280;2023-03-03T19:39:23;94972.59;;;8.94;72.28
33953;BME280;20231;42.710;23.280;2023-03-03T19:42:04;94980.25;;;8.80;73.18
33953;BME280;20231;42.710;23.280;2023-03-03T19:50:12;94974.22;;;8.70;74.07
33953;BME280;20231;42.710;23.280;2023-03-03T19:55:19;94969.25;;;8.44;75.32
33953;BME280;20231;42.710;23.280;2023-03-03T20:14:39;94963.94;;;8.78;74.25
33953;BME280;20231;42.710;23.280;2023-03-03T20:47:02;94948.47;;;8.37;76.43
33953;BME280;20231;42.710;23.280;2023-03-03T20:58:03;94947.44;;;8.38;76.19
33953;BME280;20231;42.710;23.280;2023-03-03T21:00:43;94944.50;;;8.10;77.07
33953;BME280;20231;42.710;23.280;2023-03-03T21:06:07;94931.16;;;8.36;76.79
33953;BME280;20231;42.710;23.280;2023-03-03T21:08:52;94931.13;;;8.31;76.70
33953;BME280;20231;42.710;23.280;2023-03-03T21:13:53;94935.59;;;8.01;77.61
33953;BME280;20231;42.710;23.280;2023-03-03T21:30:14;94884.91;;;7.80;75.64
33953;BME280;20231;42.710;23.280;2023-03-03T21:32:45;94943.25;;;8.42;75.72
33953;BME280;20231;42.710;23.280;2023-03-03T21:35:15;94984.22;;;8.68;74.46
33953;BME280;20231;42.710;23.280;2023-03-03T21:37:50;94958.97;;;8.62;74.10
33953;BME280;20231;42.710;23.280;2023-03-03T21:40:23;94980.00;;;8.62;74.38
33953;BME280;20231;42.710;23.280;2023-03-03T21:42:50;94966.59;;;8.53;74.21
33953;BME280;20231;42.710;23.280;2023-03-03T21:45:16;94972.41;;;8.51;74.34
33953;BME280;20231;42.710;23.280;2023-03-03T21:47:45;94982.66;;;8.57;74.78
33953;BME280;20231;42.710;23.280;2023-03-03T21:50:10;94968.44;;;8.68;74.24
33953;BME280;20231;42.710;23.280;2023-03-03T21:52:36;94956.63;;;8.51;74.56
33953;BME280;20231;42.710;23.280;2023-03-03T21:55:05;94957.72;;;8.40;74.84
33953;BME280;20231;42.710;23.280;2023-03-03T21:57:30;94964.25;;;8.57;74.69
33953;BME280;20231;42.710;23.280;2023-03-03T21:59:56;94961.13;;;8.30;75.60
33953;BME280;20231;42.710;23.280;2023-03-03T22:02:21;94963.19;;;8.08;76.27
33953;BME280;20231;42.710;23.280;2023-03-03T22:04:47;94950.56;;;7.95;77.12
33953;BME280;20231;42.710;23.280;2023-03-03T22:07:13;94947.13;;;7.85;76.86
33953;BME280;20231;42.710;23.280;2023-03-03T22:09:38;94942.41;;;7.82;77.59
33953;BME280;20231;42.710;23.280;2023-03-03T22:12:05;94954.22;;;7.75;77.36
33953;BME280;20231;42.710;23.280;2023-03-03T22:14:31;94962.88;;;7.85;77.92
33953;BME280;20231;42.710;23.280;2023-03-03T22:16:56;94959.78;;;8.03;77.59
33953;BME280;20231;42.710;23.280;2023-03-03T22:19:22;94956.88;;;7.99;77.34
33953;BME280;20231;42.710;23.280;2023-03-03T22:21:47;94969.00;;;8.15;76.91
33953;BME280;20231;42.710;23.280;2023-03-03T22:24:13;94959.28;;;8.21;76.69
33953;BME280;20231;42.710;23.280;2023-03-03T22:26:41;94954.25;;;8.04;76.14
33953;BME280;20231;42.710;23.280;2023-03-03T22:29:07;94961.34;;;7.84;78.34
33953;BME280;20231;42.710;23.280;2023-03-03T22:31:33;94966.59;;;7.99;77.44
33953;BME280;20231;42.710;23.280;2023-03-03T22:33:58;94963.97;;;7.94;77.46
33953;BME280;20231;42.710;23.280;2023-03-03T22:36:24;94965.25;;;7.81;78.06
33953;BME280;20231;42.710;23.280;2023-03-03T22:38:49;94975.19;;;7.70;78.90
33953;BME280;20231;42.710;23.280;2023-03-03T22:41:15;94979.00;;;8.23;77.43
33953;BME280;20231;42.710;23.280;2023-03-03T22:43:41;94980.84;;;8.33;76.61
33953;BME280;20231;42.710;23.280;2023-03-03T22:46:09;94975.25;;;7.84;78.13
33953;BME280;20231;42.710;23.280;2023-03-03T22:48:36;94984.97;;;8.04;78.68
33953;BME280;20231;42.710;23.280;2023-03-03T22:51:01;94978.47;;;8.21;77.75
33953;BME280;20231;42.710;23.280;2023-03-03T22:53:27;94988.13;;;8.06;78.04
33953;BME280;20231;42.710;23.280;2023-03-03T22:55:53;94983.38;;;7.93;78.98
33953;BME280;20231;42.710;23.280;2023-03-03T22:58:19;94996.44;;;7.53;79.78
33953;BME280;20231;42.710;23.280;2023-03-03T23:00:46;94985.63;;;7.45;80.81
33953;BME280;20231;42.710;23.280;2023-03-03T23:03:12;94973.81;;;7.47;80.93